Meteo Giornale » Osservazioni meteo Italia » Reggio Calabria

ore: 11:50 - Osservazioni Meteo Reggio Calabria
Lat. 38° 4' N Lon. 15° 39' E Alt. 11 metri s.l.m.

poco_nuvoloso Europe/Rome

31 °C

Poco Nuvoloso

Temp. 24 Ore

27 °C

32 °C

Nord

27.8 Km/h

Dew point 19 °C

Umidità 48 %

Visibilità  10 Km

Il sole sorge alle ore 05:53

Il sole tramonta alle ore 20:14

Data e Ora Cielo e Fenomeni T °C DP °C Um. % Pres. hPa Vis. km Vento km/h
Oggi h: 11:50 poco_nuvoloso Poco Nuvoloso 31 19 48 1007 10 N 27.8
Oggi h: 10:50 poco_nuvoloso Poco Nuvoloso 31 18 45 1007 10 N 27.8
Oggi h: 09:50 poco_nuvoloso Poco Nuvoloso 30 19 51 1007 10 N 24
Oggi h: 08:50 poco_nuvoloso Poco Nuvoloso 30 20 55 1007 10 N 20.3
Oggi h: 07:50 poco_nuvoloso Poco Nuvoloso 29 20 58 1007 10 N 18.5
Oggi h: 06:50 poco_nuvoloso Poco Nuvoloso 28 19 58 1007 10 N 22.2
Oggi h: 05:54 poco_nuvoloso Poco Nuvoloso 27 19 61 1007 10 N 18.5
Oggi h: 05:50 poco_nuvoloso Poco Nuvoloso 27 19 61 1007 10 N 18.5
Ieri h: 23:50 sereno Sereno 29 19 54 1009 10 N/NE 24
Ieri h: 22:50 sereno Sereno 30 19 51 1009 10 N/NE 22.2
Ieri h: 21:50 sereno Sereno 30 19 51 1009 10 N 22.2
Ieri h: 20:50 sereno Sereno 30 18 48 1009 10 N 22.2
Ieri h: 19:50 sereno Sereno 32 15 35 1008 10 N/NO 27.8
Ieri h: 18:50 sereno Sereno 30 16 42 1008 10 N/NO 13
Ieri h: 17:50 sereno Sereno 30 18 48 1008 10 S/SO 7.4
Ieri h: 16:50 sereno Sereno 31 17 43 1009 10 S/SO 14.8
Ieri h: 15:50 sereno Sereno 31 16 40 1009 10 S/SO 22.2
Ieri h: 14:50 sereno Sereno 31 18 45 1009 10 S/SO 25.9
Ieri h: 13:50 sereno Sereno 32 16 38 1010 10 S/SO 27.8
Ieri h: 12:50 sereno Sereno 29 21 62 1011 10 S 18.5